createdAt,value
2022-09-15T00:01:32.545Z,27.97
2022-09-15T00:03:59.320Z,25.77
2022-09-15T00:06:25.990Z,25.30
2022-09-15T00:08:52.568Z,24.20
2022-09-15T00:11:22.347Z,23.10
2022-09-15T00:13:49.068Z,24.40
2022-09-15T00:16:16.112Z,23.33
2022-09-15T00:18:43.415Z,21.03
2022-09-15T00:21:12.162Z,21.93
2022-09-15T00:23:38.827Z,20.87
2022-09-15T00:26:09.371Z,20.07
2022-09-15T00:28:36.037Z,19.43
2022-09-15T00:31:05.062Z,20.13
2022-09-15T00:33:31.644Z,20.53
2022-09-15T00:36:01.424Z,19.80
2022-09-15T00:38:27.973Z,19.43
2022-09-15T00:40:55.600Z,19.73
2022-09-15T00:43:41.550Z,21.43
2022-09-15T00:46:08.536Z,20.20
2022-09-15T00:48:35.868Z,21.60
2022-09-15T00:51:03.221Z,20.77
2022-09-15T00:53:30.371Z,20.57
2022-09-15T00:55:58.127Z,21.67
2022-09-15T00:58:26.846Z,20.77
2022-09-15T01:00:56.627Z,21.97
2022-09-15T01:03:23.937Z,22.00
2022-09-15T01:06:00.968Z,21.67
2022-09-15T01:08:41.043Z,22.00
2022-09-15T01:11:07.743Z,22.33
2022-09-15T01:13:35.025Z,23.30
2022-09-15T01:16:07.481Z,23.93
2022-09-15T01:18:46.423Z,25.73
2022-09-15T01:21:23.410Z,23.30
2022-09-15T01:23:50.037Z,24.50
2022-09-15T01:26:39.973Z,23.73
2022-09-15T01:29:21.794Z,24.83
2022-09-15T01:32:39.697Z,24.83
2022-09-15T01:35:15.255Z,27.03
2022-09-15T01:37:44.878Z,26.30
2022-09-15T01:40:12.542Z,27.83
2022-09-15T01:42:40.142Z,29.20
2022-09-15T01:45:08.999Z,27.03
2022-09-15T01:47:36.469Z,30.00
2022-09-15T01:50:08.296Z,29.90
2022-09-15T01:52:35.241Z,29.40
2022-09-15T01:55:03.717Z,31.23
2022-09-15T01:57:30.419Z,31.27
2022-09-15T01:59:57.027Z,31.80
2022-09-15T02:02:32.901Z,31.37
2022-09-15T02:05:02.159Z,30.27
2022-09-15T02:07:35.593Z,31.00
2022-09-15T02:10:08.180Z,30.53
2022-09-15T02:12:51.862Z,29.00
2022-09-15T02:15:25.861Z,27.83
2022-09-15T02:17:54.377Z,28.43
2022-09-15T02:20:38.926Z,28.63
2022-09-15T02:23:08.601Z,29.10
2022-09-15T02:25:40.360Z,28.10
2022-09-15T02:28:08.586Z,29.43
2022-09-15T02:30:37.987Z,29.67
2022-09-15T02:33:09.567Z,30.77
2022-09-15T02:35:36.441Z,30.33
2022-09-15T02:38:05.337Z,30.97
2022-09-15T02:40:32.723Z,30.17
2022-09-15T02:43:03.316Z,29.53
2022-09-15T02:45:31.201Z,30.07
2022-09-15T02:47:58.350Z,31.33
2022-09-15T02:50:28.735Z,30.40
2022-09-15T02:52:55.798Z,30.70
2022-09-15T02:55:22.996Z,29.63
2022-09-15T02:57:49.666Z,29.53
2022-09-15T03:00:17.572Z,28.60
2022-09-15T03:02:50.220Z,30.40
2022-09-15T03:05:17.631Z,28.60
2022-09-15T03:07:44.272Z,29.33
2022-09-15T03:10:12.123Z,28.30
2022-09-15T03:12:43.954Z,29.57
2022-09-15T03:15:12.168Z,27.10
2022-09-15T03:17:41.551Z,28.57
2022-09-15T03:20:09.675Z,27.23
2022-09-15T03:22:36.481Z,27.83
2022-09-15T03:25:05.529Z,27.27
2022-09-15T03:27:32.606Z,27.70
2022-09-15T03:29:59.344Z,27.60
2022-09-15T03:32:26.081Z,28.87
2022-09-15T03:34:57.695Z,29.43
2022-09-15T03:37:25.260Z,29.47
2022-09-15T03:39:51.963Z,30.73
2022-09-15T03:42:18.617Z,30.10
2022-09-15T03:44:45.159Z,30.70
2022-09-15T03:47:11.761Z,31.10
2022-09-15T03:49:38.660Z,31.63
2022-09-15T03:52:05.359Z,30.97
2022-09-15T03:54:31.959Z,32.30
2022-09-15T03:56:58.941Z,32.37
2022-09-15T03:59:25.691Z,29.77
2022-09-15T04:01:52.449Z,29.93
2022-09-15T04:04:19.042Z,29.50
2022-09-15T04:06:45.712Z,28.90
2022-09-15T04:09:12.323Z,28.83
2022-09-15T04:11:39.616Z,28.73
2022-09-15T04:14:06.481Z,27.70
2022-09-15T04:16:33.959Z,25.60
2022-09-15T04:19:00.914Z,26.17
2022-09-15T04:21:27.651Z,28.70
2022-09-15T04:23:54.481Z,28.23
2022-09-15T04:26:26.277Z,28.00
2022-09-15T04:28:53.136Z,27.77
2022-09-15T04:31:20.485Z,29.10
2022-09-15T04:33:47.719Z,28.80
2022-09-15T04:36:15.743Z,27.17
2022-09-15T04:38:42.605Z,30.00
2022-09-15T04:41:09.661Z,29.13
2022-09-15T04:43:36.532Z,26.80
2022-09-15T04:46:03.170Z,25.57
2022-09-15T04:48:30.346Z,27.83
2022-09-15T04:51:00.690Z,27.07
2022-09-15T04:53:27.235Z,28.30
2022-09-15T04:55:53.887Z,27.87
2022-09-15T04:58:20.802Z,26.87
2022-09-15T05:00:47.605Z,28.20
2022-09-15T05:03:14.428Z,26.40
2022-09-15T05:05:41.564Z,27.77
2022-09-15T05:08:08.318Z,26.80
2022-09-15T05:10:34.993Z,25.13
2022-09-15T05:13:01.562Z,25.53
2022-09-15T05:15:28.132Z,25.33
2022-09-15T05:17:54.724Z,23.57
2022-09-15T05:20:21.345Z,24.87
2022-09-15T05:22:48.015Z,24.07
2022-09-15T05:25:14.555Z,25.47
2022-09-15T05:27:41.267Z,23.67
2022-09-15T05:30:35.837Z,24.57
2022-09-15T05:32:54.780Z,24.50
2022-09-15T05:35:21.325Z,24.93
2022-09-15T05:37:47.960Z,24.07
2022-09-15T05:40:15.380Z,25.23
2022-09-15T05:42:42.016Z,23.93
2022-09-15T05:45:09.013Z,23.37
2022-09-15T05:47:35.762Z,24.27
2022-09-15T05:50:02.368Z,24.97
2022-09-15T05:52:28.926Z,24.57
2022-09-15T05:54:58.961Z,25.40
2022-09-15T05:57:25.982Z,24.43
2022-09-15T05:59:52.563Z,24.00
2022-09-15T06:02:19.214Z,25.13
2022-09-15T06:04:45.846Z,23.93
2022-09-15T06:07:12.582Z,22.90
2022-09-15T06:09:39.480Z,23.10
2022-09-15T06:12:06.115Z,24.27
2022-09-15T06:14:32.674Z,23.13
2022-09-15T06:16:59.268Z,23.73
2022-09-15T06:19:25.980Z,25.00
2022-09-15T06:21:56.665Z,25.00
2022-09-15T06:24:23.330Z,24.53
2022-09-15T06:26:49.867Z,23.33
2022-09-15T06:29:16.393Z,25.90
2022-09-15T06:31:43.070Z,24.20
2022-09-15T06:34:11.307Z,24.80
2022-09-15T06:36:39.150Z,26.67
2022-09-15T06:39:06.059Z,26.07
2022-09-15T06:41:58.328Z,26.33
2022-09-15T06:44:19.534Z,25.97
2022-09-15T06:46:46.164Z,25.23
2022-09-15T06:49:12.769Z,26.47
2022-09-15T06:51:39.377Z,25.00
2022-09-15T06:54:06.188Z,25.83
2022-09-15T06:56:37.224Z,25.77
2022-09-15T06:59:04.610Z,27.57
2022-09-15T07:01:31.896Z,25.27
2022-09-15T07:03:59.213Z,27.53
2022-09-15T07:06:29.718Z,27.67
2022-09-15T07:08:57.204Z,25.60
2022-09-15T07:11:24.281Z,27.23
2022-09-15T07:13:51.225Z,24.27
2022-09-15T07:16:18.999Z,25.80
2022-09-15T07:18:46.002Z,25.27
2022-09-15T07:21:14.241Z,25.00
2022-09-15T07:23:41.034Z,24.93
2022-09-15T07:26:27.865Z,26.00
2022-09-15T07:28:56.230Z,25.00
2022-09-15T07:31:24.011Z,24.97
2022-09-15T07:33:50.683Z,25.00
2022-09-15T07:36:17.307Z,24.63
2022-09-15T07:38:45.442Z,26.67
2022-09-15T07:41:13.960Z,27.23
2022-09-15T07:43:40.675Z,26.37
2022-09-15T07:46:07.290Z,26.17
2022-09-15T07:48:33.960Z,25.77
2022-09-15T07:51:00.541Z,25.40
2022-09-15T07:53:30.317Z,25.23
2022-09-15T07:55:57.211Z,25.10
2022-09-15T07:58:23.944Z,24.63
2022-09-15T08:00:50.633Z,22.83
2022-09-15T08:03:17.201Z,22.63
2022-09-15T08:05:45.789Z,23.97
2022-09-15T08:08:12.726Z,22.63
2022-09-15T08:10:42.699Z,24.47
2022-09-15T08:13:09.245Z,24.33
2022-09-15T08:15:38.905Z,22.30
2022-09-15T08:18:05.728Z,23.67
2022-09-15T08:20:32.897Z,22.80
2022-09-15T08:22:59.503Z,23.17
2022-09-15T08:25:26.059Z,22.77
2022-09-15T08:27:54.305Z,22.53
2022-09-15T08:30:21.327Z,21.97
2022-09-15T08:32:48.031Z,22.50
2022-09-15T08:35:16.012Z,22.53
2022-09-15T08:37:42.890Z,23.37
2022-09-15T08:40:16.012Z,24.37
2022-09-15T08:42:45.057Z,23.63
2022-09-15T08:45:33.023Z,23.50
2022-09-15T08:48:01.456Z,21.70
2022-09-15T08:50:31.167Z,22.73
2022-09-15T08:53:00.877Z,21.83
2022-09-15T08:55:42.917Z,21.43
2022-09-15T08:58:18.601Z,21.87
2022-09-15T09:00:49.128Z,19.63
2022-09-15T09:03:21.795Z,17.87
2022-09-15T09:06:10.915Z,18.83
2022-09-15T09:08:51.857Z,16.63
2022-09-15T09:11:48.374Z,15.10
2022-09-15T09:14:39.644Z,15.57
2022-09-15T09:17:23.708Z,14.07
2022-09-15T09:19:53.301Z,14.53
2022-09-15T09:22:26.168Z,13.73
2022-09-15T09:24:54.644Z,13.50
2022-09-15T09:27:24.003Z,14.97
2022-09-15T09:30:22.997Z,15.17
2022-09-15T09:32:54.327Z,13.20
2022-09-15T09:35:33.569Z,12.93
2022-09-15T09:38:02.443Z,13.40
2022-09-15T09:40:32.849Z,13.30
2022-09-15T09:42:59.967Z,13.03
2022-09-15T09:45:26.573Z,12.53
2022-09-15T09:47:56.369Z,11.03
2022-09-15T09:50:43.209Z,10.77
2022-09-15T09:53:21.979Z,10.63
2022-09-15T09:55:48.617Z,11.30
2022-09-15T09:58:19.428Z,11.00
2022-09-15T10:00:46.766Z,11.03
2022-09-15T10:03:23.677Z,10.40
2022-09-15T10:06:07.068Z,10.17
2022-09-15T10:08:35.196Z,10.27
2022-09-15T10:11:06.770Z,10.10
2022-09-15T10:13:34.375Z,11.17
2022-09-15T10:16:02.266Z,12.03
2022-09-15T10:18:33.624Z,11.53
2022-09-15T10:21:01.648Z,10.90
2022-09-15T10:23:29.440Z,10.10
2022-09-15T10:26:00.144Z,7.97
2022-09-15T10:28:27.594Z,8.40
2022-09-15T10:30:57.233Z,8.20
2022-09-15T10:33:25.479Z,8.13
2022-09-15T10:35:53.286Z,8.40
2022-09-15T10:38:46.285Z,6.40
2022-09-15T10:41:23.731Z,6.27
2022-09-15T10:43:58.811Z,5.40
2022-09-15T10:46:31.688Z,6.57
2022-09-15T10:49:17.006Z,6.93
2022-09-15T10:51:49.114Z,6.10
2022-09-15T10:54:27.882Z,5.77
2022-09-15T10:57:01.677Z,5.03
2022-09-15T10:59:40.680Z,5.67
2022-09-15T11:02:14.681Z,4.50
2022-09-15T11:04:47.256Z,3.63
2022-09-15T11:07:16.649Z,3.53
2022-09-15T11:09:47.442Z,4.00
2022-09-15T11:12:19.923Z,3.40
2022-09-15T11:14:55.707Z,3.23
2022-09-15T11:17:37.150Z,3.53
2022-09-15T11:20:12.650Z,3.10
2022-09-15T11:22:52.068Z,3.40
2022-09-15T11:25:27.083Z,3.03
2022-09-15T11:28:12.053Z,3.07
2022-09-15T11:30:47.775Z,3.13
2022-09-15T11:33:32.801Z,2.90
2022-09-15T11:35:59.541Z,2.77
2022-09-15T11:38:35.694Z,2.20
2022-09-15T11:41:19.085Z,2.13
2022-09-15T11:44:07.596Z,1.87
2022-09-15T11:46:54.560Z,2.10
2022-09-15T11:49:27.637Z,1.80
2022-09-15T11:51:59.001Z,2.10
2022-09-15T11:54:31.343Z,1.80
2022-09-15T11:56:58.796Z,1.57
2022-09-15T11:59:44.167Z,1.40
2022-09-15T12:02:19.800Z,1.70
2022-09-15T12:04:57.891Z,1.60
2022-09-15T12:07:28.960Z,1.80
2022-09-15T12:09:56.036Z,1.37
2022-09-15T12:12:22.990Z,1.70
2022-09-15T12:14:50.567Z,1.73
2022-09-15T12:17:23.531Z,1.33
2022-09-15T12:19:53.094Z,1.40
2022-09-15T12:22:32.028Z,1.70
2022-09-15T12:25:10.718Z,1.90
2022-09-15T12:27:37.360Z,1.60
2022-09-15T12:30:06.145Z,1.70
2022-09-15T12:32:35.928Z,1.70
2022-09-15T12:35:02.577Z,1.60
2022-09-15T12:37:34.404Z,1.50
2022-09-15T12:40:02.033Z,1.20
2022-09-15T12:42:31.300Z,1.37
2022-09-15T12:45:00.848Z,1.20
2022-09-15T12:47:28.493Z,1.40
2022-09-15T12:49:56.802Z,1.77
2022-09-15T12:52:24.054Z,1.50
2022-09-15T12:54:55.776Z,1.57
2022-09-15T12:57:24.848Z,2.03
2022-09-15T13:00:11.631Z,1.90
2022-09-15T13:02:43.983Z,1.80
2022-09-15T13:05:11.696Z,1.80
2022-09-15T13:07:57.607Z,1.97
2022-09-15T13:10:28.889Z,1.57
2022-09-15T13:13:03.794Z,1.80
2022-09-15T13:15:30.844Z,1.90
2022-09-15T13:17:58.112Z,1.90
2022-09-15T13:20:29.627Z,1.70
2022-09-15T13:22:57.022Z,2.13
2022-09-15T13:25:26.331Z,1.60
2022-09-15T13:27:54.742Z,2.00
2022-09-15T13:30:21.503Z,2.13
2022-09-15T13:32:56.196Z,1.83
2022-09-15T13:35:49.231Z,2.17
2022-09-15T13:38:29.287Z,1.90
2022-09-15T13:41:34.199Z,2.03
2022-09-15T13:44:10.230Z,1.90
2022-09-15T13:46:45.065Z,2.17
2022-09-15T13:49:39.962Z,1.97
2022-09-15T13:52:09.519Z,2.00
2022-09-15T13:54:36.372Z,1.83
2022-09-15T13:57:03.190Z,1.83
2022-09-15T13:59:31.358Z,1.70
2022-09-15T14:01:59.024Z,1.90
2022-09-15T14:04:28.307Z,1.93
2022-09-15T14:07:00.054Z,1.60
2022-09-15T14:09:27.715Z,1.77
2022-09-15T14:11:56.061Z,1.80
2022-09-15T14:14:34.420Z,1.57
2022-09-15T14:17:01.157Z,1.53
2022-09-15T14:19:33.716Z,1.50
2022-09-15T14:22:01.673Z,1.40
2022-09-15T14:24:30.202Z,1.30
2022-09-15T14:27:03.447Z,1.63
2022-09-15T14:29:30.409Z,1.23
2022-09-15T14:31:59.875Z,1.53
2022-09-15T14:34:28.436Z,1.00
2022-09-15T14:37:01.126Z,1.30
2022-09-15T14:39:27.725Z,1.37
2022-09-15T14:41:54.724Z,1.33
2022-09-15T14:47:14.024Z,1.50
2022-09-15T14:49:40.671Z,1.37
2022-09-15T14:52:16.117Z,1.30
2022-09-15T14:54:42.763Z,1.30
2022-09-15T14:57:10.401Z,1.20
2022-09-15T14:59:36.909Z,1.40
2022-09-15T15:02:10.972Z,1.30
2022-09-15T15:04:41.687Z,1.33
2022-09-15T15:07:15.021Z,1.73
2022-09-15T15:10:07.975Z,1.10
2022-09-15T15:12:36.150Z,1.50
2022-09-15T15:15:04.690Z,1.50
2022-09-15T15:17:35.634Z,1.30
2022-09-15T15:20:08.153Z,1.40
2022-09-15T15:22:34.945Z,1.40
2022-09-15T15:25:01.948Z,1.47
2022-09-15T15:27:34.375Z,1.50
2022-09-15T15:30:20.356Z,1.80
2022-09-15T15:32:47.072Z,1.50
2022-09-15T15:35:15.986Z,1.53
2022-09-15T15:37:43.402Z,1.30
2022-09-15T15:40:21.213Z,1.83
2022-09-15T15:42:55.238Z,1.53
2022-09-15T15:45:26.274Z,1.50
2022-09-15T15:47:53.378Z,1.50
2022-09-15T15:50:21.549Z,1.87
2022-09-15T15:52:49.065Z,1.43
2022-09-15T15:55:16.986Z,1.90
2022-09-15T15:57:44.146Z,2.00
2022-09-15T16:00:21.301Z,1.43
2022-09-15T16:02:49.032Z,1.43
2022-09-15T16:05:15.729Z,1.50
2022-09-15T16:07:44.517Z,1.33
2022-09-15T16:10:15.933Z,1.50
2022-09-15T16:12:42.500Z,1.60
2022-09-15T16:15:10.842Z,1.20
2022-09-15T16:17:37.581Z,1.57
2022-09-15T16:20:04.326Z,1.47
2022-09-15T16:22:30.996Z,1.53
2022-09-15T16:24:57.630Z,1.70
2022-09-15T16:27:24.686Z,1.70
2022-09-15T16:29:51.369Z,1.83
2022-09-15T16:32:19.412Z,1.80
2022-09-15T16:34:46.106Z,1.27
2022-09-15T16:37:13.020Z,1.40
2022-09-15T16:39:39.587Z,1.60
2022-09-15T16:42:06.258Z,1.33
2022-09-15T16:44:32.848Z,1.47
2022-09-15T16:46:59.484Z,1.60
2022-09-15T16:49:26.230Z,1.23
2022-09-15T16:51:53.109Z,1.50
2022-09-15T16:54:22.789Z,1.60
2022-09-15T16:56:49.399Z,1.70
2022-09-15T16:59:16.088Z,2.20
2022-09-15T17:01:42.686Z,1.83
2022-09-15T17:04:12.754Z,1.90
2022-09-15T17:06:39.340Z,1.70
2022-09-15T17:09:05.944Z,1.70
2022-09-15T17:11:32.530Z,1.90
2022-09-15T17:13:59.091Z,1.87
2022-09-15T17:16:25.727Z,1.70
2022-09-15T17:18:52.445Z,1.90
2022-09-15T17:21:19.853Z,2.07
2022-09-15T17:23:48.331Z,1.90
2022-09-15T17:26:17.095Z,1.97
2022-09-15T17:28:43.759Z,1.50
2022-09-15T17:31:15.185Z,2.03
2022-09-15T17:33:42.333Z,2.07
2022-09-15T17:36:09.131Z,1.80
2022-09-15T17:38:35.909Z,1.97
2022-09-15T17:41:02.669Z,1.90
2022-09-15T17:43:30.442Z,2.03
2022-09-15T17:45:58.084Z,2.20
2022-09-15T17:48:24.783Z,1.93
2022-09-15T17:50:52.142Z,1.87
2022-09-15T17:53:22.717Z,2.80
2022-09-15T17:55:50.292Z,1.80
2022-09-15T17:58:17.602Z,1.70
2022-09-15T18:00:44.880Z,2.10
2022-09-15T18:03:26.892Z,1.60
2022-09-15T18:05:54.713Z,1.80
2022-09-15T18:08:21.584Z,1.50
2022-09-15T18:10:48.423Z,1.30
2022-09-15T18:13:16.576Z,1.60
2022-09-15T18:15:43.678Z,1.43
2022-09-15T18:18:12.669Z,1.53
2022-09-15T18:20:39.409Z,1.40
2022-09-15T18:23:06.255Z,1.40
2022-09-15T18:25:34.564Z,1.43
2022-09-15T18:28:02.025Z,1.83
2022-09-15T18:30:31.057Z,1.70
2022-09-15T18:32:57.918Z,1.50
2022-09-15T18:35:25.112Z,1.70
2022-09-15T18:37:56.712Z,1.77
2022-09-15T18:40:23.693Z,1.23
2022-09-15T18:42:50.297Z,1.40
2022-09-15T18:45:18.143Z,1.30
2022-09-15T18:48:11.910Z,0.90
2022-09-15T18:50:41.421Z,1.20
2022-09-15T18:53:08.116Z,1.60
2022-09-15T18:55:34.911Z,1.60
2022-09-15T18:58:01.600Z,1.63
2022-09-15T19:00:28.937Z,1.30
2022-09-15T19:02:57.249Z,1.40
2022-09-15T19:05:24.212Z,1.60
2022-09-15T19:07:50.812Z,1.50
2022-09-15T19:10:17.592Z,1.37
2022-09-15T19:12:44.364Z,1.40
2022-09-15T19:15:12.245Z,1.77
2022-09-15T19:17:39.534Z,1.50
2022-09-15T19:20:07.486Z,1.60
2022-09-15T19:22:34.528Z,1.57
2022-09-15T19:25:01.425Z,1.50
2022-09-15T19:27:28.127Z,1.60
2022-09-15T19:29:54.759Z,2.03
2022-09-15T19:32:22.211Z,1.50
2022-09-15T19:34:49.095Z,1.43
2022-09-15T19:37:18.822Z,1.63
2022-09-15T19:39:46.027Z,1.60
2022-09-15T19:42:13.008Z,1.50
2022-09-15T19:44:40.599Z,1.90
2022-09-15T19:47:07.672Z,1.70
2022-09-15T19:49:34.331Z,1.40
2022-09-15T19:52:00.962Z,1.73
2022-09-15T19:54:28.536Z,1.77
2022-09-15T19:56:56.120Z,1.80
2022-09-15T19:59:26.273Z,1.57
2022-09-15T20:01:55.487Z,1.63
2022-09-15T20:04:22.100Z,1.90
2022-09-15T20:06:48.794Z,1.50
2022-09-15T20:09:15.826Z,1.60
2022-09-15T20:11:43.608Z,1.80
2022-09-15T20:14:10.246Z,1.60
2022-09-15T20:16:37.148Z,1.97
2022-09-15T20:19:04.989Z,1.87
2022-09-15T20:21:51.437Z,1.80
2022-09-15T20:24:19.038Z,1.80
2022-09-15T20:26:45.858Z,2.00
2022-09-15T20:29:12.499Z,1.87
2022-09-15T20:31:39.386Z,1.90
2022-09-15T20:34:05.937Z,2.03
2022-09-15T20:36:34.156Z,2.00
2022-09-15T20:39:01.215Z,1.70
2022-09-15T20:41:28.455Z,1.70
2022-09-15T20:43:55.222Z,2.00
2022-09-15T20:46:23.148Z,1.90
2022-09-15T20:52:38.077Z,1.80
2022-09-15T20:55:05.172Z,2.00
2022-09-15T20:57:32.036Z,2.20
2022-09-15T20:59:58.605Z,1.70
2022-09-15T21:02:25.214Z,2.20
2022-09-15T21:04:51.781Z,2.00
2022-09-15T21:07:18.299Z,1.63
2022-09-15T21:09:45.339Z,1.70
2022-09-15T21:12:11.855Z,1.80
2022-09-15T21:14:38.377Z,1.97
2022-09-15T21:17:04.930Z,1.87
2022-09-15T21:19:31.498Z,2.03
2022-09-15T21:21:58.937Z,1.90
2022-09-15T21:24:25.459Z,2.00
2022-09-15T21:27:10.394Z,1.80
2022-09-15T21:29:37.135Z,2.07
2022-09-15T21:32:03.774Z,1.80
2022-09-15T21:34:31.691Z,1.87
2022-09-15T21:36:58.232Z,1.80
2022-09-15T21:39:24.784Z,1.60
2022-09-15T21:41:51.400Z,1.80
2022-09-15T21:44:18.006Z,2.13
2022-09-15T21:46:46.903Z,2.10
2022-09-15T21:49:13.927Z,2.30
2022-09-15T21:51:40.537Z,2.30
2022-09-15T21:54:07.123Z,2.30
2022-09-15T21:56:33.710Z,2.10
2022-09-15T21:59:01.804Z,2.33
2022-09-15T22:01:29.851Z,1.97
2022-09-15T22:03:57.652Z,1.77
2022-09-15T22:06:30.277Z,2.13
2022-09-15T22:08:57.482Z,1.97
2022-09-15T22:11:24.319Z,2.03
2022-09-15T22:13:50.912Z,2.10
2022-09-15T22:16:19.069Z,2.60
2022-09-15T22:18:46.025Z,2.37
2022-09-15T22:21:17.386Z,2.10
2022-09-15T22:23:44.246Z,2.30
2022-09-15T22:26:12.041Z,2.00
2022-09-15T22:28:38.764Z,2.30
2022-09-15T22:31:08.021Z,1.90
2022-09-15T22:33:35.003Z,2.30
2022-09-15T22:36:01.608Z,2.00
2022-09-15T22:38:29.551Z,2.77
2022-09-15T22:40:56.567Z,2.37
2022-09-15T22:43:23.179Z,2.47
2022-09-15T22:45:49.907Z,1.93
2022-09-15T22:48:16.529Z,2.40
2022-09-15T22:50:46.245Z,2.33
2022-09-15T22:53:13.205Z,1.83
2022-09-15T22:55:39.941Z,2.10
2022-09-15T22:58:06.594Z,1.80
2022-09-15T23:00:33.415Z,2.03
2022-09-15T23:03:00.249Z,2.03
2022-09-15T23:05:26.858Z,1.70
2022-09-15T23:07:53.518Z,1.87
2022-09-15T23:10:20.085Z,2.10
2022-09-15T23:12:46.669Z,2.00
2022-09-15T23:15:13.225Z,1.70
2022-09-15T23:17:39.827Z,2.00
2022-09-15T23:20:06.440Z,2.13
2022-09-15T23:22:33.009Z,2.23
2022-09-15T23:24:59.534Z,2.10
2022-09-15T23:27:26.100Z,1.93
2022-09-15T23:29:52.742Z,2.43
2022-09-15T23:32:19.378Z,2.30
2022-09-15T23:34:46.046Z,1.90
2022-09-15T23:37:12.610Z,2.47
2022-09-15T23:39:39.148Z,2.53
2022-09-15T23:42:05.843Z,2.33
2022-09-15T23:44:32.385Z,2.13
2022-09-15T23:46:58.998Z,2.13
2022-09-15T23:49:25.604Z,2.43
2022-09-15T23:51:52.190Z,2.30
2022-09-15T23:54:18.779Z,2.20
2022-09-15T23:56:45.349Z,2.10
